sensor_id;sensor_type;location;lat;lon;timestamp;temperature;humidity
46440;DHT22;32138;50.966;6.968;2023-07-08T00:00:27;22.80;65.40
46440;DHT22;32138;50.966;6.968;2023-07-08T00:01:58;22.70;65.70
46440;DHT22;32138;50.966;6.968;2023-07-08T00:03:29;22.70;65.00
46440;DHT22;32138;50.966;6.968;2023-07-08T00:05:00;22.80;64.80
46440;DHT22;32138;50.966;6.968;2023-07-08T00:06:30;22.90;64.50
46440;DHT22;32138;50.966;6.968;2023-07-08T00:08:02;22.80;65.40
46440;DHT22;32138;50.966;6.968;2023-07-08T00:09:33;22.80;65.80
46440;DHT22;32138;50.966;6.968;2023-07-08T00:11:10;22.70;65.50
46440;DHT22;32138;50.966;6.968;2023-07-08T00:12:43;22.80;65.00
46440;DHT22;32138;50.966;6.968;2023-07-08T00:14:14;22.80;64.70
46440;DHT22;32138;50.966;6.968;2023-07-08T00:15:45;22.70;65.60
46440;DHT22;32138;50.966;6.968;2023-07-08T00:17:16;22.80;65.50
46440;DHT22;32138;50.966;6.968;2023-07-08T00:18:47;22.70;65.90
46440;DHT22;32138;50.966;6.968;2023-07-08T00:20:39;22.70;65.90
46440;DHT22;32138;50.966;6.968;2023-07-08T00:22:13;22.70;66.00
46440;DHT22;32138;50.966;6.968;2023-07-08T00:23:48;22.60;66.00
46440;DHT22;32138;50.966;6.968;2023-07-08T00:25:20;22.60;66.40
46440;DHT22;32138;50.966;6.968;2023-07-08T00:26:51;22.50;66.60
46440;DHT22;32138;50.966;6.968;2023-07-08T00:28:22;22.50;66.90
46440;DHT22;32138;50.966;6.968;2023-07-08T00:29:53;22.40;66.70
46440;DHT22;32138;50.966;6.968;2023-07-08T00:31:24;22.50;66.50
46440;DHT22;32138;50.966;6.968;2023-07-08T00:32:56;22.60;66.30
46440;DHT22;32138;50.966;6.968;2023-07-08T00:34:28;22.50;66.90
46440;DHT22;32138;50.966;6.968;2023-07-08T00:35:59;22.50;66.70
46440;DHT22;32138;50.966;6.968;2023-07-08T00:37:29;22.60;67.50
46440;DHT22;32138;50.966;6.968;2023-07-08T00:39:01;22.30;68.70
46440;DHT22;32138;50.966;6.968;2023-07-08T00:40:33;22.30;69.10
46440;DHT22;32138;50.966;6.968;2023-07-08T00:42:18;22.20;68.80
46440;DHT22;32138;50.966;6.968;2023-07-08T00:43:57;22.20;68.70
46440;DHT22;32138;50.966;6.968;2023-07-08T00:45:42;22.30;68.90
46440;DHT22;32138;50.966;6.968;2023-07-08T00:47:17;22.30;69.50
46440;DHT22;32138;50.966;6.968;2023-07-08T00:48:50;22.20;70.20
46440;DHT22;32138;50.966;6.968;2023-07-08T00:50:22;22.10;70.40
46440;DHT22;32138;50.966;6.968;2023-07-08T00:51:53;22.10;69.80
46440;DHT22;32138;50.966;6.968;2023-07-08T00:55:06;22.20;69.40
46440;DHT22;32138;50.966;6.968;2023-07-08T00:56:40;22.10;70.80
46440;DHT22;32138;50.966;6.968;2023-07-08T00:58:15;21.90;71.30
46440;DHT22;32138;50.966;6.968;2023-07-08T01:01:22;22.00;69.70
46440;DHT22;32138;50.966;6.968;2023-07-08T01:02:55;22.10;70.00
46440;DHT22;32138;50.966;6.968;2023-07-08T01:04:34;22.10;69.60
46440;DHT22;32138;50.966;6.968;2023-07-08T01:06:12;22.00;71.20
46440;DHT22;32138;50.966;6.968;2023-07-08T01:07:45;22.10;70.90
46440;DHT22;32138;50.966;6.968;2023-07-08T01:09:21;22.00;70.40
46440;DHT22;32138;50.966;6.968;2023-07-08T01:10:54;22.00;70.40
46440;DHT22;32138;50.966;6.968;2023-07-08T01:12:32;22.10;70.70
46440;DHT22;32138;50.966;6.968;2023-07-08T01:14:08;22.10;70.70
46440;DHT22;32138;50.966;6.968;2023-07-08T01:15:43;21.90;71.30
46440;DHT22;32138;50.966;6.968;2023-07-08T01:17:15;21.80;71.60
46440;DHT22;32138;50.966;6.968;2023-07-08T01:18:46;21.80;70.90
46440;DHT22;32138;50.966;6.968;2023-07-08T01:20:23;22.00;70.80
46440;DHT22;32138;50.966;6.968;2023-07-08T01:23:24;21.90;70.70
46440;DHT22;32138;50.966;6.968;2023-07-08T01:24:55;21.90;71.20
46440;DHT22;32138;50.966;6.968;2023-07-08T01:26:26;21.90;71.00
46440;DHT22;32138;50.966;6.968;2023-07-08T01:27:58;21.90;70.60
46440;DHT22;32138;50.966;6.968;2023-07-08T01:29:29;21.90;70.40
46440;DHT22;32138;50.966;6.968;2023-07-08T01:30:59;21.90;70.30
46440;DHT22;32138;50.966;6.968;2023-07-08T01:32:36;21.90;70.30
46440;DHT22;32138;50.966;6.968;2023-07-08T01:34:10;22.00;70.20
46440;DHT22;32138;50.966;6.968;2023-07-08T01:35:41;22.00;70.30
46440;DHT22;32138;50.966;6.968;2023-07-08T01:37:12;22.00;70.40
46440;DHT22;32138;50.966;6.968;2023-07-08T01:38:43;22.10;70.70
46440;DHT22;32138;50.966;6.968;2023-07-08T01:41:57;22.00;72.70
46440;DHT22;32138;50.966;6.968;2023-07-08T01:43:28;21.90;72.70
46440;DHT22;32138;50.966;6.968;2023-07-08T01:44:59;22.00;73.00
46440;DHT22;32138;50.966;6.968;2023-07-08T01:46:30;21.90;72.00
46440;DHT22;32138;50.966;6.968;2023-07-08T01:48:06;22.00;71.50
46440;DHT22;32138;50.966;6.968;2023-07-08T01:49:40;22.00;71.10
46440;DHT22;32138;50.966;6.968;2023-07-08T01:51:12;22.00;70.80
46440;DHT22;32138;50.966;6.968;2023-07-08T01:52:43;22.00;70.70
46440;DHT22;32138;50.966;6.968;2023-07-08T01:54:14;21.90;71.40
46440;DHT22;32138;50.966;6.968;2023-07-08T01:55:44;22.00;70.70
46440;DHT22;32138;50.966;6.968;2023-07-08T01:57:15;21.90;70.90
46440;DHT22;32138;50.966;6.968;2023-07-08T01:58:46;22.00;72.30
46440;DHT22;32138;50.966;6.968;2023-07-08T02:00:17;22.00;71.70
46440;DHT22;32138;50.966;6.968;2023-07-08T02:01:48;21.90;73.40
46440;DHT22;32138;50.966;6.968;2023-07-08T02:03:21;21.80;74.20
46440;DHT22;32138;50.966;6.968;2023-07-08T02:04:52;21.90;73.30
46440;DHT22;32138;50.966;6.968;2023-07-08T02:06:23;21.90;72.20
46440;DHT22;32138;50.966;6.968;2023-07-08T02:07:53;21.90;72.10
46440;DHT22;32138;50.966;6.968;2023-07-08T02:09:26;21.90;72.10
46440;DHT22;32138;50.966;6.968;2023-07-08T02:10:58;21.90;71.90
46440;DHT22;32138;50.966;6.968;2023-07-08T02:12:29;21.90;71.80
46440;DHT22;32138;50.966;6.968;2023-07-08T02:14:00;21.90;72.10
46440;DHT22;32138;50.966;6.968;2023-07-08T02:15:31;21.80;72.10
46440;DHT22;32138;50.966;6.968;2023-07-08T02:17:03;21.90;72.20
46440;DHT22;32138;50.966;6.968;2023-07-08T02:18:36;21.90;72.10
46440;DHT22;32138;50.966;6.968;2023-07-08T02:20:07;21.80;72.10
46440;DHT22;32138;50.966;6.968;2023-07-08T02:21:39;21.80;72.10
46440;DHT22;32138;50.966;6.968;2023-07-08T02:23:10;21.70;72.50
46440;DHT22;32138;50.966;6.968;2023-07-08T02:24:40;21.60;72.50
46440;DHT22;32138;50.966;6.968;2023-07-08T02:26:11;21.70;72.50
46440;DHT22;32138;50.966;6.968;2023-07-08T02:27:42;21.70;72.60
46440;DHT22;32138;50.966;6.968;2023-07-08T02:29:13;21.70;72.50
46440;DHT22;32138;50.966;6.968;2023-07-08T02:30:44;21.70;72.40
46440;DHT22;32138;50.966;6.968;2023-07-08T02:32:17;21.70;72.20
46440;DHT22;32138;50.966;6.968;2023-07-08T02:33:48;21.70;72.30
46440;DHT22;32138;50.966;6.968;2023-07-08T02:35:18;21.70;72.40
46440;DHT22;32138;50.966;6.968;2023-07-08T02:36:49;21.60;72.30
46440;DHT22;32138;50.966;6.968;2023-07-08T02:38:20;21.60;72.50
46440;DHT22;32138;50.966;6.968;2023-07-08T02:39:51;21.60;72.50
46440;DHT22;32138;50.966;6.968;2023-07-08T02:41:21;21.50;72.80
46440;DHT22;32138;50.966;6.968;2023-07-08T02:42:52;21.50;73.10
46440;DHT22;32138;50.966;6.968;2023-07-08T02:44:23;21.50;72.50
46440;DHT22;32138;50.966;6.968;2023-07-08T02:45:54;21.60;72.40
46440;DHT22;32138;50.966;6.968;2023-07-08T02:47:24;21.50;72.50
46440;DHT22;32138;50.966;6.968;2023-07-08T02:48:55;21.50;72.80
46440;DHT22;32138;50.966;6.968;2023-07-08T02:50:26;21.40;72.90
46440;DHT22;32138;50.966;6.968;2023-07-08T02:51:57;21.50;73.10
46440;DHT22;32138;50.966;6.968;2023-07-08T02:53:28;21.50;73.00
46440;DHT22;32138;50.966;6.968;2023-07-08T02:54:58;21.60;73.20
46440;DHT22;32138;50.966;6.968;2023-07-08T02:56:29;21.70;73.20
46440;DHT22;32138;50.966;6.968;2023-07-08T02:58:00;21.60;73.20
46440;DHT22;32138;50.966;6.968;2023-07-08T02:59:30;21.70;73.50
46440;DHT22;32138;50.966;6.968;2023-07-08T03:01:01;21.80;73.80
46440;DHT22;32138;50.966;6.968;2023-07-08T03:02:32;21.70;73.60
46440;DHT22;32138;50.966;6.968;2023-07-08T03:04:03;21.70;74.10
46440;DHT22;32138;50.966;6.968;2023-07-08T03:05:36;21.60;74.20
46440;DHT22;32138;50.966;6.968;2023-07-08T03:07:08;21.60;74.60
46440;DHT22;32138;50.966;6.968;2023-07-08T03:08:42;21.50;74.40
46440;DHT22;32138;50.966;6.968;2023-07-08T03:10:12;21.60;74.60
46440;DHT22;32138;50.966;6.968;2023-07-08T03:11:43;21.60;74.60
46440;DHT22;32138;50.966;6.968;2023-07-08T03:13:14;21.60;75.00
46440;DHT22;32138;50.966;6.968;2023-07-08T03:14:45;21.60;74.70
46440;DHT22;32138;50.966;6.968;2023-07-08T03:16:15;21.60;74.70
46440;DHT22;32138;50.966;6.968;2023-07-08T03:17:46;21.60;75.50
46440;DHT22;32138;50.966;6.968;2023-07-08T03:19:17;21.50;75.60
46440;DHT22;32138;50.966;6.968;2023-07-08T03:20:48;21.30;76.30
46440;DHT22;32138;50.966;6.968;2023-07-08T03:22:19;21.30;76.30
46440;DHT22;32138;50.966;6.968;2023-07-08T03:23:51;21.20;76.50
46440;DHT22;32138;50.966;6.968;2023-07-08T03:25:22;21.20;76.90
46440;DHT22;32138;50.966;6.968;2023-07-08T03:26:52;21.10;77.10
46440;DHT22;32138;50.966;6.968;2023-07-08T03:28:25;21.00;77.30
46440;DHT22;32138;50.966;6.968;2023-07-08T03:29:55;21.10;77.30
46440;DHT22;32138;50.966;6.968;2023-07-08T03:31:26;21.00;77.30
46440;DHT22;32138;50.966;6.968;2023-07-08T03:32:57;20.80;78.20
46440;DHT22;32138;50.966;6.968;2023-07-08T03:34:28;20.90;78.10
46440;DHT22;32138;50.966;6.968;2023-07-08T03:35:58;21.00;77.50
46440;DHT22;32138;50.966;6.968;2023-07-08T03:37:29;21.00;76.80
46440;DHT22;32138;50.966;6.968;2023-07-08T03:39:00;21.00;77.20
46440;DHT22;32138;50.966;6.968;2023-07-08T03:40:32;20.90;77.30
46440;DHT22;32138;50.966;6.968;2023-07-08T03:42:03;20.90;76.50
46440;DHT22;32138;50.966;6.968;2023-07-08T03:43:34;21.00;76.70
46440;DHT22;32138;50.966;6.968;2023-07-08T03:45:05;21.10;76.10
46440;DHT22;32138;50.966;6.968;2023-07-08T03:46:36;21.10;75.80
46440;DHT22;32138;50.966;6.968;2023-07-08T03:48:10;21.10;75.90
46440;DHT22;32138;50.966;6.968;2023-07-08T03:49:41;21.10;76.10
46440;DHT22;32138;50.966;6.968;2023-07-08T03:51:20;21.10;76.30
46440;DHT22;32138;50.966;6.968;2023-07-08T03:52:54;21.10;76.50
46440;DHT22;32138;50.966;6.968;2023-07-08T03:54:25;21.00;76.40
46440;DHT22;32138;50.966;6.968;2023-07-08T03:55:56;21.00;76.40
46440;DHT22;32138;50.966;6.968;2023-07-08T03:57:27;21.10;76.30
46440;DHT22;32138;50.966;6.968;2023-07-08T03:58:57;21.00;76.20
46440;DHT22;32138;50.966;6.968;2023-07-08T04:00:28;21.10;75.70
46440;DHT22;32138;50.966;6.968;2023-07-08T04:01:59;21.10;75.60
46440;DHT22;32138;50.966;6.968;2023-07-08T04:03:30;21.20;75.50
46440;DHT22;32138;50.966;6.968;2023-07-08T04:05:00;21.20;75.30
46440;DHT22;32138;50.966;6.968;2023-07-08T04:06:31;21.10;75.40
46440;DHT22;32138;50.966;6.968;2023-07-08T04:08:04;21.20;75.50
46440;DHT22;32138;50.966;6.968;2023-07-08T04:09:35;21.20;75.20
46440;DHT22;32138;50.966;6.968;2023-07-08T04:11:06;21.20;75.10
46440;DHT22;32138;50.966;6.968;2023-07-08T04:12:39;21.20;75.00
46440;DHT22;32138;50.966;6.968;2023-07-08T04:14:10;21.30;75.70
46440;DHT22;32138;50.966;6.968;2023-07-08T04:15:41;21.30;74.80
46440;DHT22;32138;50.966;6.968;2023-07-08T04:17:12;21.20;75.20
46440;DHT22;32138;50.966;6.968;2023-07-08T04:18:43;21.20;75.50
46440;DHT22;32138;50.966;6.968;2023-07-08T04:20:16;21.10;75.60
46440;DHT22;32138;50.966;6.968;2023-07-08T04:21:49;21.20;75.40
46440;DHT22;32138;50.966;6.968;2023-07-08T04:23:20;21.20;75.80
46440;DHT22;32138;50.966;6.968;2023-07-08T04:24:51;21.20;75.50
46440;DHT22;32138;50.966;6.968;2023-07-08T04:26:21;21.10;75.40
46440;DHT22;32138;50.966;6.968;2023-07-08T04:27:52;21.20;75.60
46440;DHT22;32138;50.966;6.968;2023-07-08T04:29:23;21.10;75.10
46440;DHT22;32138;50.966;6.968;2023-07-08T04:30:54;21.00;75.20
46440;DHT22;32138;50.966;6.968;2023-07-08T04:32:25;21.00;75.70
46440;DHT22;32138;50.966;6.968;2023-07-08T04:33:56;21.00;75.90
46440;DHT22;32138;50.966;6.968;2023-07-08T04:35:26;21.10;75.60
46440;DHT22;32138;50.966;6.968;2023-07-08T04:36:59;21.10;75.30
46440;DHT22;32138;50.966;6.968;2023-07-08T04:38:30;21.00;74.90
46440;DHT22;32138;50.966;6.968;2023-07-08T04:40:02;21.00;75.20
46440;DHT22;32138;50.966;6.968;2023-07-08T04:41:37;21.10;75.20
46440;DHT22;32138;50.966;6.968;2023-07-08T04:43:11;21.10;75.10
46440;DHT22;32138;50.966;6.968;2023-07-08T04:44:42;21.10;74.90
46440;DHT22;32138;50.966;6.968;2023-07-08T04:46:21;21.20;75.00
46440;DHT22;32138;50.966;6.968;2023-07-08T04:47:58;21.10;74.90
46440;DHT22;32138;50.966;6.968;2023-07-08T04:49:28;21.10;74.70
46440;DHT22;32138;50.966;6.968;2023-07-08T04:51:04;21.10;74.80
46440;DHT22;32138;50.966;6.968;2023-07-08T04:52:35;21.10;74.90
46440;DHT22;32138;50.966;6.968;2023-07-08T04:54:06;21.10;75.00
46440;DHT22;32138;50.966;6.968;2023-07-08T04:56:03;21.10;74.90
46440;DHT22;32138;50.966;6.968;2023-07-08T04:57:34;21.10;74.80
46440;DHT22;32138;50.966;6.968;2023-07-08T04:59:06;21.10;74.90
46440;DHT22;32138;50.966;6.968;2023-07-08T05:00:38;21.10;74.90
46440;DHT22;32138;50.966;6.968;2023-07-08T05:02:09;21.20;74.90
46440;DHT22;32138;50.966;6.968;2023-07-08T05:03:40;21.20;74.50
46440;DHT22;32138;50.966;6.968;2023-07-08T05:05:11;21.30;74.70
46440;DHT22;32138;50.966;6.968;2023-07-08T05:06:42;21.30;74.40
46440;DHT22;32138;50.966;6.968;2023-07-08T05:08:12;21.30;75.10
46440;DHT22;32138;50.966;6.968;2023-07-08T05:09:43;21.30;74.50
46440;DHT22;32138;50.966;6.968;2023-07-08T05:11:14;21.40;75.10
46440;DHT22;32138;50.966;6.968;2023-07-08T05:12:45;21.30;74.90
46440;DHT22;32138;50.966;6.968;2023-07-08T05:14:16;21.20;74.70
46440;DHT22;32138;50.966;6.968;2023-07-08T05:15:48;21.30;74.50
46440;DHT22;32138;50.966;6.968;2023-07-08T05:17:19;21.40;74.60
46440;DHT22;32138;50.966;6.968;2023-07-08T05:18:49;21.40;74.60
46440;DHT22;32138;50.966;6.968;2023-07-08T05:20:20;21.50;74.60
46440;DHT22;32138;50.966;6.968;2023-07-08T05:21:52;21.50;74.90
46440;DHT22;32138;50.966;6.968;2023-07-08T05:23:23;21.50;74.40
46440;DHT22;32138;50.966;6.968;2023-07-08T05:24:54;21.60;74.40
46440;DHT22;32138;50.966;6.968;2023-07-08T05:26:28;21.60;74.10
46440;DHT22;32138;50.966;6.968;2023-07-08T05:27:59;21.60;74.20
46440;DHT22;32138;50.966;6.968;2023-07-08T05:29:30;21.60;73.90
46440;DHT22;32138;50.966;6.968;2023-07-08T05:31:01;21.60;74.10
46440;DHT22;32138;50.966;6.968;2023-07-08T05:32:32;21.60;73.80
46440;DHT22;32138;50.966;6.968;2023-07-08T05:34:03;21.70;74.30
46440;DHT22;32138;50.966;6.968;2023-07-08T05:35:33;21.70;73.30
46440;DHT22;32138;50.966;6.968;2023-07-08T05:37:04;21.70;73.20
46440;DHT22;32138;50.966;6.968;2023-07-08T05:38:35;21.80;72.90
46440;DHT22;32138;50.966;6.968;2023-07-08T05:40:07;21.80;73.00
46440;DHT22;32138;50.966;6.968;2023-07-08T05:41:39;21.90;72.50
46440;DHT22;32138;50.966;6.968;2023-07-08T05:43:09;21.90;72.50
46440;DHT22;32138;50.966;6.968;2023-07-08T05:44:40;22.00;72.40
46440;DHT22;32138;50.966;6.968;2023-07-08T05:46:11;22.10;72.40
46440;DHT22;32138;50.966;6.968;2023-07-08T05:47:42;22.20;72.50
46440;DHT22;32138;50.966;6.968;2023-07-08T05:49:12;22.20;72.40
46440;DHT22;32138;50.966;6.968;2023-07-08T05:50:45;22.20;72.00
46440;DHT22;32138;50.966;6.968;2023-07-08T05:52:15;22.40;72.00
46440;DHT22;32138;50.966;6.968;2023-07-08T05:53:46;22.30;71.70
46440;DHT22;32138;50.966;6.968;2023-07-08T05:55:17;22.30;71.40
46440;DHT22;32138;50.966;6.968;2023-07-08T05:56:48;22.20;70.90
46440;DHT22;32138;50.966;6.968;2023-07-08T05:58:18;22.20;71.20
46440;DHT22;32138;50.966;6.968;2023-07-08T05:59:49;22.20;71.40
46440;DHT22;32138;50.966;6.968;2023-07-08T06:01:21;22.30;71.10
46440;DHT22;32138;50.966;6.968;2023-07-08T06:02:52;22.40;71.20
46440;DHT22;32138;50.966;6.968;2023-07-08T06:04:22;22.50;70.40
46440;DHT22;32138;50.966;6.968;2023-07-08T06:05:53;22.50;70.70
46440;DHT22;32138;50.966;6.968;2023-07-08T06:07:24;22.50;70.10
46440;DHT22;32138;50.966;6.968;2023-07-08T06:08:55;22.50;69.90
46440;DHT22;32138;50.966;6.968;2023-07-08T06:10:25;22.50;69.70
46440;DHT22;32138;50.966;6.968;2023-07-08T06:11:56;22.50;69.40
46440;DHT22;32138;50.966;6.968;2023-07-08T06:13:27;22.50;69.30
46440;DHT22;32138;50.966;6.968;2023-07-08T06:14:58;22.60;69.30
46440;DHT22;32138;50.966;6.968;2023-07-08T06:16:28;22.70;69.50
46440;DHT22;32138;50.966;6.968;2023-07-08T06:18:00;22.80;69.00
46440;DHT22;32138;50.966;6.968;2023-07-08T06:19:33;22.80;68.80
46440;DHT22;32138;50.966;6.968;2023-07-08T06:21:05;22.90;68.70
46440;DHT22;32138;50.966;6.968;2023-07-08T06:22:36;22.90;68.20
46440;DHT22;32138;50.966;6.968;2023-07-08T06:24:06;22.90;68.40
46440;DHT22;32138;50.966;6.968;2023-07-08T06:25:37;22.90;68.20
46440;DHT22;32138;50.966;6.968;2023-07-08T06:27:09;22.80;68.60
46440;DHT22;32138;50.966;6.968;2023-07-08T06:28:40;22.90;68.40
46440;DHT22;32138;50.966;6.968;2023-07-08T06:30:11;22.90;68.40
46440;DHT22;32138;50.966;6.968;2023-07-08T06:31:42;22.90;68.40
46440;DHT22;32138;50.966;6.968;2023-07-08T06:33:13;22.90;68.60
46440;DHT22;32138;50.966;6.968;2023-07-08T06:34:44;22.90;68.70
46440;DHT22;32138;50.966;6.968;2023-07-08T06:36:14;23.00;68.80
46440;DHT22;32138;50.966;6.968;2023-07-08T06:37:45;23.10;68.80
46440;DHT22;32138;50.966;6.968;2023-07-08T06:39:16;23.10;68.20
46440;DHT22;32138;50.966;6.968;2023-07-08T06:40:47;23.00;68.10
46440;DHT22;32138;50.966;6.968;2023-07-08T06:42:18;23.00;68.20
46440;DHT22;32138;50.966;6.968;2023-07-08T06:43:49;23.10;68.10
46440;DHT22;32138;50.966;6.968;2023-07-08T06:45:20;23.10;67.50
46440;DHT22;32138;50.966;6.968;2023-07-08T06:46:51;23.10;67.70
46440;DHT22;32138;50.966;6.968;2023-07-08T06:48:22;23.20;67.70
46440;DHT22;32138;50.966;6.968;2023-07-08T06:49:54;23.40;67.90
46440;DHT22;32138;50.966;6.968;2023-07-08T06:51:26;23.40;67.60
46440;DHT22;32138;50.966;6.968;2023-07-08T06:52:57;23.50;67.20
46440;DHT22;32138;50.966;6.968;2023-07-08T06:54:28;23.50;67.30
46440;DHT22;32138;50.966;6.968;2023-07-08T06:55:58;23.50;67.50
46440;DHT22;32138;50.966;6.968;2023-07-08T06:57:29;23.70;68.00
46440;DHT22;32138;50.966;6.968;2023-07-08T06:59:00;23.60;67.10
46440;DHT22;32138;50.966;6.968;2023-07-08T07:00:31;23.70;67.20
46440;DHT22;32138;50.966;6.968;2023-07-08T07:02:02;23.70;66.90
46440;DHT22;32138;50.966;6.968;2023-07-08T07:03:32;23.70;67.20
46440;DHT22;32138;50.966;6.968;2023-07-08T07:05:04;23.90;67.60
46440;DHT22;32138;50.966;6.968;2023-07-08T07:06:35;23.90;67.20
46440;DHT22;32138;50.966;6.968;2023-07-08T07:08:05;23.90;66.80
46440;DHT22;32138;50.966;6.968;2023-07-08T07:09:38;23.90;66.60
46440;DHT22;32138;50.966;6.968;2023-07-08T07:11:08;24.00;67.10
46440;DHT22;32138;50.966;6.968;2023-07-08T07:12:39;24.00;66.40
46440;DHT22;32138;50.966;6.968;2023-07-08T07:14:10;24.10;66.20
46440;DHT22;32138;50.966;6.968;2023-07-08T07:15:41;24.20;66.30
46440;DHT22;32138;50.966;6.968;2023-07-08T07:17:11;24.30;66.60
46440;DHT22;32138;50.966;6.968;2023-07-08T07:18:42;24.40;66.70
46440;DHT22;32138;50.966;6.968;2023-07-08T07:20:13;24.40;66.00
46440;DHT22;32138;50.966;6.968;2023-07-08T07:21:44;24.30;66.20
46440;DHT22;32138;50.966;6.968;2023-07-08T07:23:15;24.50;66.30
46440;DHT22;32138;50.966;6.968;2023-07-08T07:24:45;24.70;67.10
46440;DHT22;32138;50.966;6.968;2023-07-08T07:26:16;24.80;65.60
46440;DHT22;32138;50.966;6.968;2023-07-08T07:27:47;24.90;64.90
46440;DHT22;32138;50.966;6.968;2023-07-08T07:29:21;24.90;64.50
46440;DHT22;32138;50.966;6.968;2023-07-08T07:30:57;24.90;64.00
46440;DHT22;32138;50.966;6.968;2023-07-08T07:32:28;25.00;64.50
46440;DHT22;32138;50.966;6.968;2023-07-08T07:34:00;25.00;63.80
46440;DHT22;32138;50.966;6.968;2023-07-08T07:35:32;24.90;64.00
46440;DHT22;32138;50.966;6.968;2023-07-08T07:37:02;24.90;63.40
46440;DHT22;32138;50.966;6.968;2023-07-08T07:38:34;25.00;63.30
46440;DHT22;32138;50.966;6.968;2023-07-08T07:40:06;25.00;62.70
46440;DHT22;32138;50.966;6.968;2023-07-08T07:41:45;25.00;63.00
46440;DHT22;32138;50.966;6.968;2023-07-08T07:43:16;24.90;63.30
46440;DHT22;32138;50.966;6.968;2023-07-08T07:44:47;24.90;62.80
46440;DHT22;32138;50.966;6.968;2023-07-08T07:46:18;24.80;63.50
46440;DHT22;32138;50.966;6.968;2023-07-08T07:47:48;24.80;63.70
46440;DHT22;32138;50.966;6.968;2023-07-08T07:49:20;24.90;63.50
46440;DHT22;32138;50.966;6.968;2023-07-08T07:50:51;25.00;63.40
46440;DHT22;32138;50.966;6.968;2023-07-08T07:52:21;25.10;63.00
46440;DHT22;32138;50.966;6.968;2023-07-08T07:53:54;25.20;62.60
46440;DHT22;32138;50.966;6.968;2023-07-08T07:55:25;25.20;62.00
46440;DHT22;32138;50.966;6.968;2023-07-08T07:56:56;25.20;62.10
46440;DHT22;32138;50.966;6.968;2023-07-08T07:58:27;25.30;62.50
46440;DHT22;32138;50.966;6.968;2023-07-08T07:59:58;25.40;61.30
46440;DHT22;32138;50.966;6.968;2023-07-08T08:01:29;25.40;61.80
46440;DHT22;32138;50.966;6.968;2023-07-08T08:02:59;25.40;62.50
46440;DHT22;32138;50.966;6.968;2023-07-08T08:04:30;25.30;62.60
46440;DHT22;32138;50.966;6.968;2023-07-08T08:06:01;25.30;62.60
46440;DHT22;32138;50.966;6.968;2023-07-08T08:07:32;25.30;62.80
46440;DHT22;32138;50.966;6.968;2023-07-08T08:09:04;25.30;62.50
46440;DHT22;32138;50.966;6.968;2023-07-08T08:10:35;25.30;62.50
46440;DHT22;32138;50.966;6.968;2023-07-08T08:12:08;25.30;62.30
46440;DHT22;32138;50.966;6.968;2023-07-08T08:13:40;25.30;61.60
46440;DHT22;32138;50.966;6.968;2023-07-08T08:15:11;25.30;62.10
46440;DHT22;32138;50.966;6.968;2023-07-08T08:16:42;25.30;62.10
46440;DHT22;32138;50.966;6.968;2023-07-08T08:18:13;25.40;62.00
46440;DHT22;32138;50.966;6.968;2023-07-08T08:19:43;25.40;61.90
46440;DHT22;32138;50.966;6.968;2023-07-08T08:21:14;25.50;61.80
46440;DHT22;32138;50.966;6.968;2023-07-08T08:22:46;25.60;61.90
46440;DHT22;32138;50.966;6.968;2023-07-08T08:24:17;25.80;61.40
46440;DHT22;32138;50.966;6.968;2023-07-08T08:25:48;25.90;62.60
46440;DHT22;32138;50.966;6.968;2023-07-08T08:27:20;26.00;61.60
46440;DHT22;32138;50.966;6.968;2023-07-08T08:28:51;26.20;61.20
46440;DHT22;32138;50.966;6.968;2023-07-08T08:30:22;26.20;60.70
46440;DHT22;32138;50.966;6.968;2023-07-08T08:31:53;26.30;60.90
46440;DHT22;32138;50.966;6.968;2023-07-08T08:33:24;26.40;60.20
46440;DHT22;32138;50.966;6.968;2023-07-08T08:34:55;26.40;60.90
46440;DHT22;32138;50.966;6.968;2023-07-08T08:36:26;26.60;60.60
46440;DHT22;32138;50.966;6.968;2023-07-08T08:37:57;26.50;59.50
46440;DHT22;32138;50.966;6.968;2023-07-08T08:39:27;26.60;60.10
46440;DHT22;32138;50.966;6.968;2023-07-08T08:41:13;26.60;59.60
46440;DHT22;32138;50.966;6.968;2023-07-08T08:42:50;26.60;59.60
46440;DHT22;32138;50.966;6.968;2023-07-08T08:44:34;26.70;59.90
46440;DHT22;32138;50.966;6.968;2023-07-08T08:48:03;26.70;58.90
46440;DHT22;32138;50.966;6.968;2023-07-08T08:49:46;26.80;58.40
46440;DHT22;32138;50.966;6.968;2023-07-08T08:51:22;26.90;58.80
46440;DHT22;32138;50.966;6.968;2023-07-08T08:52:54;26.90;59.40
46440;DHT22;32138;50.966;6.968;2023-07-08T08:54:25;27.00;59.40
46440;DHT22;32138;50.966;6.968;2023-07-08T08:56:10;27.10;59.60
46440;DHT22;32138;50.966;6.968;2023-07-08T08:59:50;27.10;59.30
46440;DHT22;32138;50.966;6.968;2023-07-08T09:01:24;27.20;60.10
46440;DHT22;32138;50.966;6.968;2023-07-08T09:03:02;27.20;59.90
46440;DHT22;32138;50.966;6.968;2023-07-08T09:04:40;27.30;59.60
46440;DHT22;32138;50.966;6.968;2023-07-08T09:06:17;27.30;59.80
46440;DHT22;32138;50.966;6.968;2023-07-08T09:09:50;27.50;59.40
46440;DHT22;32138;50.966;6.968;2023-07-08T09:13:23;27.50;58.20
46440;DHT22;32138;50.966;6.968;2023-07-08T09:14:57;27.60;58.20
46440;DHT22;32138;50.966;6.968;2023-07-08T09:19:14;27.70;57.60
46440;DHT22;32138;50.966;6.968;2023-07-08T09:20:45;27.90;57.50
46440;DHT22;32138;50.966;6.968;2023-07-08T09:22:25;27.80;57.70
46440;DHT22;32138;50.966;6.968;2023-07-08T09:24:37;27.90;57.40
46440;DHT22;32138;50.966;6.968;2023-07-08T09:26:22;27.90;57.60
46440;DHT22;32138;50.966;6.968;2023-07-08T09:27:55;28.00;57.50
46440;DHT22;32138;50.966;6.968;2023-07-08T09:29:25;28.00;57.20
46440;DHT22;32138;50.966;6.968;2023-07-08T09:30:57;28.00;57.90
46440;DHT22;32138;50.966;6.968;2023-07-08T09:32:28;28.10;57.20
46440;DHT22;32138;50.966;6.968;2023-07-08T09:34:17;28.10;57.00
46440;DHT22;32138;50.966;6.968;2023-07-08T09:35:52;28.20;57.10
46440;DHT22;32138;50.966;6.968;2023-07-08T09:38:55;28.30;57.50
46440;DHT22;32138;50.966;6.968;2023-07-08T09:40:32;28.50;57.00
46440;DHT22;32138;50.966;6.968;2023-07-08T09:42:06;28.50;56.70
46440;DHT22;32138;50.966;6.968;2023-07-08T09:43:38;28.60;56.40
46440;DHT22;32138;50.966;6.968;2023-07-08T09:45:18;28.50;57.20
46440;DHT22;32138;50.966;6.968;2023-07-08T09:46:52;28.50;56.40
46440;DHT22;32138;50.966;6.968;2023-07-08T09:48:26;28.60;57.40
46440;DHT22;32138;50.966;6.968;2023-07-08T09:49:59;28.70;55.90
46440;DHT22;32138;50.966;6.968;2023-07-08T09:51:30;28.60;56.10
46440;DHT22;32138;50.966;6.968;2023-07-08T09:53:01;28.70;56.70
46440;DHT22;32138;50.966;6.968;2023-07-08T09:54:32;28.70;56.40
46440;DHT22;32138;50.966;6.968;2023-07-08T09:56:04;28.90;56.60
46440;DHT22;32138;50.966;6.968;2023-07-08T09:57:35;28.90;57.00
46440;DHT22;32138;50.966;6.968;2023-07-08T09:59:12;29.00;56.00
46440;DHT22;32138;50.966;6.968;2023-07-08T10:00:54;29.00;56.30